Time;durP1;ratioP1;P1;durP2;ratioP2;P2;SDS_P1;SDS_P2;PMS_P1;PMS_P2;Temp;Humidity;BMP_temperature;BMP_pressure;BME280_temperature;BME280_humidity;BME280_pressure;Samples;Min_cycle;Max_cycle;Signal;HPM_P1;HPM_P2
2023/07/04 00:00:27;;;;;;;1999.90;999.90;;;;;;;;;;5042400;28;20584;-75
2023/07/04 00:02:54;;;;;;;1999.90;999.90;;;;;;;;;;5044345;28;20590;-75
2023/07/04 00:05:20;;;;;;;1999.90;999.90;;;;;;;;;;5045299;28;20593;-75
2023/07/04 00:07:47;;;;;;;1999.90;999.90;;;;;;;;;;5039349;28;20052;-75
2023/07/04 00:10:13;;;;;;;1999.90;999.90;;;;;;;;;;5042066;28;20046;-75
2023/07/04 00:12:39;;;;;;;1999.90;999.90;;;;;;;;;;5043835;28;20049;-75
2023/07/04 00:15:07;;;;;;;1999.90;999.90;;;;;;;;;;5044481;28;20748;-74
2023/07/04 00:17:34;;;;;;;1999.90;999.90;;;;;;;;;;5043433;28;20046;-72
2023/07/04 00:20:03;;;;;;;1999.90;999.90;;;;;;;;;;5042374;28;20065;-73
2023/07/04 00:22:29;;;;;;;1999.90;999.90;;;;;;;;;;5041965;28;20047;-73
2023/07/04 00:24:56;;;;;;;1999.90;999.90;;;;;;;;;;5044184;28;20082;-73
2023/07/04 00:27:23;;;;;;;1999.90;999.90;;;;;;;;;;5043809;28;20060;-74
2023/07/04 00:29:50;;;;;;;1999.90;999.90;;;;;;;;;;5041962;28;20073;-74
2023/07/04 00:32:16;;;;;;;1999.90;999.90;;;;;;;;;;5038974;28;20049;-74
2023/07/04 00:34:45;;;;;;;1999.90;999.90;;;;;;;;;;5046710;28;20049;-74
2023/07/04 00:37:11;;;;;;;1999.90;999.90;;;;;;;;;;5045095;28;20541;-73
2023/07/04 00:39:40;;;;;;;1999.90;999.90;;;;;;;;;;5045162;28;20056;-73
2023/07/04 00:42:08;;;;;;;1999.90;999.90;;;;;;;;;;5045390;28;20049;-74
2023/07/04 00:44:37;;;;;;;1999.90;999.90;;;;;;;;;;5046846;28;20610;-74
2023/07/04 00:47:06;;;;;;;1999.90;999.90;;;;;;;;;;5040065;28;20067;-74
2023/07/04 00:49:42;;;;;;;1999.90;999.90;;;;;;;;;;5045788;28;20049;-74
2023/07/04 00:52:12;;;;;;;1999.90;999.90;;;;;;;;;;5046842;28;20045;-74
2023/07/04 00:54:41;;;;;;;1999.90;999.90;;;;;;;;;;5044661;28;20048;-74
2023/07/04 00:57:08;;;;;;;1999.90;999.90;;;;;;;;;;5042724;28;20049;-74
2023/07/04 00:59:43;;;;;;;1999.90;999.90;;;;;;;;;;5044781;28;20128;-74
2023/07/04 01:02:10;;;;;;;1999.90;999.90;;;;;;;;;;5045390;28;20047;-74
2023/07/04 01:04:36;;;;;;;1999.90;999.90;;;;;;;;;;5041211;28;20103;-74
2023/07/04 01:07:11;;;;;;;1999.90;999.90;;;;;;;;;;5044701;28;20098;-74
2023/07/04 01:09:39;;;;;;;1999.90;999.90;;;;;;;;;;5040343;28;20063;-74
2023/07/04 01:12:07;;;;;;;1999.90;999.90;;;;;;;;;;5042378;28;20048;-73
2023/07/04 01:14:33;;;;;;;1999.90;999.90;;;;;;;;;;5041399;28;20052;-73
2023/07/04 01:16:59;;;;;;;1999.90;999.90;;;;;;;;;;5041922;28;20064;-73
2023/07/04 01:19:30;;;;;;;1999.90;999.90;;;;;;;;;;5044310;28;20052;-74
2023/07/04 01:22:09;;;;;;;1999.90;999.90;;;;;;;;;;5041228;28;20049;-74
2023/07/04 01:24:44;;;;;;;1999.90;999.90;;;;;;;;;;5040122;28;20056;-74
2023/07/04 01:27:14;;;;;;;1999.90;999.90;;;;;;;;;;5043620;28;20058;-75
2023/07/04 01:29:40;;;;;;;1999.90;999.90;;;;;;;;;;5040106;28;20056;-75
2023/07/04 01:32:08;;;;;;;1999.90;999.90;;;;;;;;;;5042178;28;20048;-74
2023/07/04 01:34:35;;;;;;;1999.90;999.90;;;;;;;;;;5039673;28;20049;-75
2023/07/04 01:37:02;;;;;;;1999.90;999.90;;;;;;;;;;5043460;28;20041;-76
2023/07/04 01:39:28;;;;;;;1999.90;999.90;;;;;;;;;;5040021;28;20061;-77
2023/07/04 01:41:55;;;;;;;1999.90;999.90;;;;;;;;;;5042631;28;20076;-76
2023/07/04 01:44:24;;;;;;;1999.90;999.90;;;;;;;;;;5044884;28;20048;-76
2023/07/04 01:46:50;;;;;;;1999.90;999.90;;;;;;;;;;5042269;28;20053;-76
2023/07/04 01:49:18;;;;;;;1999.90;999.90;;;;;;;;;;5041640;28;20049;-77
2023/07/04 01:51:44;;;;;;;1999.90;999.90;;;;;;;;;;5042166;28;20056;-76
2023/07/04 01:54:16;;;;;;;1999.90;999.90;;;;;;;;;;5039216;28;20439;-76
2023/07/04 01:56:43;;;;;;;1999.90;999.90;;;;;;;;;;5043957;28;20049;-76
2023/07/04 01:59:09;;;;;;;1999.90;999.90;;;;;;;;;;5040387;28;20057;-77
2023/07/04 02:01:37;;;;;;;1999.90;999.90;;;;;;;;;;5041478;28;20053;-76
2023/07/04 02:04:04;;;;;;;1999.90;999.90;;;;;;;;;;5041935;28;20050;-76
2023/07/04 02:06:30;;;;;;;1999.90;999.90;;;;;;;;;;5043858;28;20041;-76
2023/07/04 02:08:57;;;;;;;1999.90;999.90;;;;;;;;;;5040728;28;20054;-76
2023/07/04 02:11:23;;;;;;;1999.90;999.90;;;;;;;;;;5040446;28;20046;-75
2023/07/04 02:13:50;;;;;;;1999.90;999.90;;;;;;;;;;5041516;28;20045;-76
2023/07/04 02:16:16;;;;;;;1999.90;999.90;;;;;;;;;;5039572;28;20041;-76
2023/07/04 02:18:44;;;;;;;1999.90;999.90;;;;;;;;;;5043830;28;20049;-76
2023/07/04 02:21:10;;;;;;;1999.90;999.90;;;;;;;;;;5038562;28;20056;-76
2023/07/04 02:23:37;;;;;;;1999.90;999.90;;;;;;;;;;5042664;28;20041;-76
2023/07/04 02:26:03;;;;;;;1999.90;999.90;;;;;;;;;;5042110;28;20068;-76
2023/07/04 02:28:29;;;;;;;1999.90;999.90;;;;;;;;;;5042563;28;20046;-76
2023/07/04 02:30:57;;;;;;;1999.90;999.90;;;;;;;;;;5038616;28;20045;-75
2023/07/04 02:33:24;;;;;;;1999.90;999.90;;;;;;;;;;5039053;28;20045;-76
2023/07/04 02:35:52;;;;;;;1999.90;999.90;;;;;;;;;;5038989;28;20049;-76
2023/07/04 02:38:19;;;;;;;1999.90;999.90;;;;;;;;;;5042456;28;20056;-77
2023/07/04 02:40:46;;;;;;;1999.90;999.90;;;;;;;;;;5042282;28;20045;-77
2023/07/04 02:43:13;;;;;;;1999.90;999.90;;;;;;;;;;5043075;28;20416;-76
2023/07/04 02:45:40;;;;;;;1999.90;999.90;;;;;;;;;;5039394;28;20508;-77
2023/07/04 02:48:07;;;;;;;1999.90;999.90;;;;;;;;;;5042571;28;20052;-77
2023/07/04 02:50:34;;;;;;;1999.90;999.90;;;;;;;;;;5043704;28;20048;-77
2023/07/04 02:53:02;;;;;;;1999.90;999.90;;;;;;;;;;5044573;28;20055;-77
2023/07/04 02:55:29;;;;;;;1999.90;999.90;;;;;;;;;;5040833;28;20390;-77
2023/07/04 02:57:55;;;;;;;1999.90;999.90;;;;;;;;;;5042575;28;20052;-77
2023/07/04 03:00:22;;;;;;;1999.90;999.90;;;;;;;;;;5040229;28;20080;-77
2023/07/04 03:02:49;;;;;;;1999.90;999.90;;;;;;;;;;5040108;28;20052;-77
2023/07/04 03:05:15;;;;;;;1999.90;999.90;;;;;;;;;;5039546;28;20052;-77
2023/07/04 03:07:41;;;;;;;1999.90;999.90;;;;;;;;;;5042358;28;20414;-77
2023/07/04 03:10:10;;;;;;;1999.90;999.90;;;;;;;;;;5041218;28;20053;-77
2023/07/04 03:12:36;;;;;;;1999.90;999.90;;;;;;;;;;5038994;28;20052;-77
2023/07/04 03:15:03;;;;;;;1999.90;999.90;;;;;;;;;;5041477;28;20045;-78
2023/07/04 03:17:30;;;;;;;1999.90;999.90;;;;;;;;;;5039957;28;20478;-78
2023/07/04 03:19:56;;;;;;;1999.90;999.90;;;;;;;;;;5042873;28;20041;-77
2023/07/04 03:22:23;;;;;;;1999.90;999.90;;;;;;;;;;5040617;28;20087;-77
2023/07/04 03:24:49;;;;;;;1999.90;999.90;;;;;;;;;;5040122;28;20053;-77
2023/07/04 03:27:17;;;;;;;1999.90;999.90;;;;;;;;;;5039577;28;20041;-77
2023/07/04 03:29:43;;;;;;;1999.90;999.90;;;;;;;;;;5040729;28;20051;-78
2023/07/04 03:32:10;;;;;;;1999.90;999.90;;;;;;;;;;5041250;28;20054;-77
2023/07/04 03:34:36;;;;;;;1999.90;999.90;;;;;;;;;;5042174;28;20045;-77
2023/07/04 03:37:03;;;;;;;1999.90;999.90;;;;;;;;;;5041466;28;20049;-77
2023/07/04 03:39:29;;;;;;;1999.90;999.90;;;;;;;;;;5046570;28;20505;-78
2023/07/04 03:41:55;;;;;;;1999.90;999.90;;;;;;;;;;5045401;28;20060;-78
2023/07/04 03:44:23;;;;;;;1999.90;999.90;;;;;;;;;;5043323;28;20056;-77
2023/07/04 03:46:50;;;;;;;1999.90;999.90;;;;;;;;;;5045361;28;20481;-76
2023/07/04 03:49:16;;;;;;;1999.90;999.90;;;;;;;;;;5044456;28;20041;-77
2023/07/04 03:51:42;;;;;;;1999.90;999.90;;;;;;;;;;5046999;28;20056;-77
2023/07/04 03:54:09;;;;;;;1999.90;999.90;;;;;;;;;;5042789;28;20057;-77
2023/07/04 03:56:35;;;;;;;1999.90;999.90;;;;;;;;;;5042686;28;20048;-77
2023/07/04 03:59:02;;;;;;;1999.90;999.90;;;;;;;;;;5043153;28;20053;-77
2023/07/04 04:01:29;;;;;;;1999.90;999.90;;;;;;;;;;5044047;28;20060;-77
2023/07/04 04:03:56;;;;;;;1999.90;999.90;;;;;;;;;;5046399;28;20052;-77
2023/07/04 04:06:22;;;;;;;1999.90;999.90;;;;;;;;;;5046518;28;20046;-77
2023/07/04 04:08:49;;;;;;;1999.90;999.90;;;;;;;;;;5043639;28;20042;-76
2023/07/04 04:11:15;;;;;;;1999.90;999.90;;;;;;;;;;5043277;28;20051;-78
2023/07/04 04:13:41;;;;;;;1999.90;999.90;;;;;;;;;;5041793;28;20052;-78
2023/07/04 04:16:08;;;;;;;1999.90;999.90;;;;;;;;;;5041950;28;20449;-78
2023/07/04 04:18:36;;;;;;;1999.90;999.90;;;;;;;;;;5044584;28;20045;-78
2023/07/04 04:21:02;;;;;;;1999.90;999.90;;;;;;;;;;5042710;28;20052;-78
2023/07/04 04:23:29;;;;;;;1999.90;999.90;;;;;;;;;;5045761;28;20464;-78
2023/07/04 04:25:57;;;;;;;1999.90;999.90;;;;;;;;;;5041161;28;20052;-78
2023/07/04 04:28:24;;;;;;;1999.90;999.90;;;;;;;;;;5041726;28;20141;-78
2023/07/04 04:30:51;;;;;;;1999.90;999.90;;;;;;;;;;5039759;28;20044;-78
2023/07/04 04:33:20;;;;;;;1999.90;999.90;;;;;;;;;;5041892;28;20046;-78
2023/07/04 04:35:48;;;;;;;1999.90;999.90;;;;;;;;;;5041011;28;20041;-78
2023/07/04 04:38:14;;;;;;;1999.90;999.90;;;;;;;;;;5044699;28;20052;-79
2023/07/04 04:40:40;;;;;;;1999.90;999.90;;;;;;;;;;5044569;28;20039;-79
2023/07/04 04:43:08;;;;;;;1999.90;999.90;;;;;;;;;;5042588;28;20049;-79
2023/07/04 04:45:34;;;;;;;1999.90;999.90;;;;;;;;;;5044309;28;20048;-78
2023/07/04 04:48:01;;;;;;;1999.90;999.90;;;;;;;;;;5039654;28;20076;-79
2023/07/04 04:50:30;;;;;;;1999.90;999.90;;;;;;;;;;5040527;28;20041;-79
2023/07/04 04:52:58;;;;;;;1999.90;999.90;;;;;;;;;;5043160;28;20103;-79
2023/07/04 04:55:25;;;;;;;1999.90;999.90;;;;;;;;;;5041635;28;20053;-79
2023/07/04 04:57:52;;;;;;;1999.90;999.90;;;;;;;;;;5042503;28;20065;-79
2023/07/04 05:00:20;;;;;;;1999.90;999.90;;;;;;;;;;5041257;28;20106;-79
2023/07/04 05:02:47;;;;;;;1999.90;999.90;;;;;;;;;;5040588;28;20051;-79
2023/07/04 05:05:13;;;;;;;1999.90;999.90;;;;;;;;;;5043910;28;20057;-79
2023/07/04 05:07:40;;;;;;;1999.90;999.90;;;;;;;;;;5044081;28;20497;-78
2023/07/04 05:10:09;;;;;;;1999.90;999.90;;;;;;;;;;5039138;28;20060;-79
2023/07/04 05:12:35;;;;;;;1999.90;999.90;;;;;;;;;;5041181;28;20041;-78
2023/07/04 05:15:02;;;;;;;1999.90;999.90;;;;;;;;;;5041702;28;20079;-78
2023/07/04 05:17:28;;;;;;;1999.90;999.90;;;;;;;;;;5039833;28;20092;-78
2023/07/04 05:19:55;;;;;;;1999.90;999.90;;;;;;;;;;5043591;28;20053;-78
2023/07/04 05:22:21;;;;;;;1999.90;999.90;;;;;;;;;;5039769;28;20045;-76
2023/07/04 05:24:48;;;;;;;1999.90;999.90;;;;;;;;;;5038048;28;20041;-77
2023/07/04 05:27:16;;;;;;;1999.90;999.90;;;;;;;;;;5039733;28;20060;-76
2023/07/04 05:29:43;;;;;;;1999.90;999.90;;;;;;;;;;5041157;28;20128;-76
2023/07/04 05:32:09;;;;;;;1999.90;999.90;;;;;;;;;;5042604;28;20051;-76
2023/07/04 05:34:36;;;;;;;1999.90;999.90;;;;;;;;;;5042261;28;20044;-76
2023/07/04 05:37:03;;;;;;;1999.90;999.90;;;;;;;;;;5043617;28;20485;-76
2023/07/04 05:39:29;;;;;;;1999.90;999.90;;;;;;;;;;5040890;28;20897;-76
2023/07/04 05:41:55;;;;;;;1999.90;999.90;;;;;;;;;;5041686;28;20055;-76
2023/07/04 05:44:23;;;;;;;1999.90;999.90;;;;;;;;;;5040772;28;20042;-77
2023/07/04 05:46:49;;;;;;;1999.90;999.90;;;;;;;;;;5039788;28;20053;-76
2023/07/04 05:49:16;;;;;;;1999.90;999.90;;;;;;;;;;5042104;28;20045;-76
2023/07/04 05:51:42;;;;;;;1999.90;999.90;;;;;;;;;;5043902;28;20135;-76
2023/07/04 05:54:09;;;;;;;1999.90;999.90;;;;;;;;;;5044108;28;20045;-75
2023/07/04 05:56:35;;;;;;;1999.90;999.90;;;;;;;;;;5042609;28;20045;-75
2023/07/04 05:59:03;;;;;;;1999.90;999.90;;;;;;;;;;5042130;28;20055;-75
2023/07/04 06:01:33;;;;;;;1999.90;999.90;;;;;;;;;;5042693;28;20429;-75
2023/07/04 06:04:00;;;;;;;1999.90;999.90;;;;;;;;;;5041812;28;20441;-75
2023/07/04 06:06:31;;;;;;;1999.90;999.90;;;;;;;;;;5040707;28;20065;-76
2023/07/04 06:08:59;;;;;;;1999.90;999.90;;;;;;;;;;5042555;28;20057;-75
2023/07/04 06:11:29;;;;;;;1999.90;999.90;;;;;;;;;;5039970;28;20140;-76
2023/07/04 06:13:56;;;;;;;1999.90;999.90;;;;;;;;;;5040586;28;20049;-75
2023/07/04 06:16:22;;;;;;;1999.90;999.90;;;;;;;;;;5041569;28;20084;-75
2023/07/04 06:18:50;;;;;;;1999.90;999.90;;;;;;;;;;5040961;28;20045;-75
2023/07/04 06:21:18;;;;;;;1999.90;999.90;;;;;;;;;;5038800;28;20707;-76
2023/07/04 06:23:45;;;;;;;1999.90;999.90;;;;;;;;;;5042877;28;20044;-75
2023/07/04 06:26:12;;;;;;;1999.90;999.90;;;;;;;;;;5040333;28;20053;-76
2023/07/04 06:28:40;;;;;;;1999.90;999.90;;;;;;;;;;5038950;28;20528;-77
2023/07/04 06:31:10;;;;;;;1999.90;999.90;;;;;;;;;;5040578;28;20049;-76
2023/07/04 06:33:37;;;;;;;1999.90;999.90;;;;;;;;;;5041320;28;20098;-75
2023/07/04 06:36:08;;;;;;;1999.90;999.90;;;;;;;;;;5040964;28;20503;-76
2023/07/04 06:38:34;;;;;;;1999.90;999.90;;;;;;;;;;5042275;28;20044;-76
2023/07/04 06:41:02;;;;;;;1999.90;999.90;;;;;;;;;;5040358;28;20704;-76
2023/07/04 06:43:30;;;;;;;1999.90;999.90;;;;;;;;;;5040959;28;20055;-77
2023/07/04 06:45:57;;;;;;;1999.90;999.90;;;;;;;;;;5040200;28;20056;-75
2023/07/04 06:48:24;;;;;;;1999.90;999.90;;;;;;;;;;5041498;28;20061;-75
2023/07/04 06:50:58;;;;;;;1999.90;999.90;;;;;;;;;;5039058;28;20060;-75
2023/07/04 06:53:26;;;;;;;1999.90;999.90;;;;;;;;;;5036413;28;20049;-75
2023/07/04 06:55:53;;;;;;;1999.90;999.90;;;;;;;;;;5042874;28;20057;-76
2023/07/04 06:58:20;;;;;;;1999.90;999.90;;;;;;;;;;5040580;28;20060;-76
2023/07/04 07:00:46;;;;;;;1999.90;999.90;;;;;;;;;;5045628;28;20136;-75
2023/07/04 07:03:13;;;;;;;1999.90;999.90;;;;;;;;;;5041998;28;20064;-75
2023/07/04 07:05:39;;;;;;;1999.90;999.90;;;;;;;;;;5041684;28;20041;-75
2023/07/04 07:08:06;;;;;;;1999.90;999.90;;;;;;;;;;5040248;28;20037;-77
2023/07/04 07:10:36;;;;;;;1999.90;999.90;;;;;;;;;;5041275;28;20052;-77
2023/07/04 07:13:03;;;;;;;1999.90;999.90;;;;;;;;;;5042746;28;20064;-76
2023/07/04 07:15:29;;;;;;;1999.90;999.90;;;;;;;;;;5045104;28;20052;-76
2023/07/04 07:17:56;;;;;;;1999.90;999.90;;;;;;;;;;5044081;28;20041;-76
2023/07/04 07:20:23;;;;;;;1999.90;999.90;;;;;;;;;;5046395;28;20046;-76
2023/07/04 07:22:49;;;;;;;1999.90;999.90;;;;;;;;;;5044380;28;20042;-76
2023/07/04 07:25:16;;;;;;;1999.90;999.90;;;;;;;;;;5042247;28;20440;-76
2023/07/04 07:27:43;;;;;;;1999.90;999.90;;;;;;;;;;5044377;28;20049;-75
2023/07/04 07:30:11;;;;;;;1999.90;999.90;;;;;;;;;;5045214;28;20051;-75
2023/07/04 07:32:37;;;;;;;1999.90;999.90;;;;;;;;;;5047219;28;20037;-75
2023/07/04 07:35:05;;;;;;;1999.90;999.90;;;;;;;;;;5045394;28;20053;-76
2023/07/04 07:37:31;;;;;;;1999.90;999.90;;;;;;;;;;5045384;28;20046;-74
2023/07/04 07:39:58;;;;;;;1999.90;999.90;;;;;;;;;;5043147;28;20045;-74
2023/07/04 07:42:24;;;;;;;1999.90;999.90;;;;;;;;;;5045048;28;20045;-74
2023/07/04 07:44:52;;;;;;;1999.90;999.90;;;;;;;;;;5043201;28;20623;-74
2023/07/04 07:47:19;;;;;;;1999.90;999.90;;;;;;;;;;5044528;28;20057;-74
2023/07/04 07:49:45;;;;;;;1999.90;999.90;;;;;;;;;;5043931;28;20098;-74
2023/07/04 07:52:12;;;;;;;1999.90;999.90;;;;;;;;;;5046529;28;20056;-74
2023/07/04 07:54:38;;;;;;;1999.90;999.90;;;;;;;;;;5047651;28;20539;-76
2023/07/04 07:57:06;;;;;;;1999.90;999.90;;;;;;;;;;5047002;28;20049;-75
2023/07/04 07:59:32;;;;;;;1999.90;999.90;;;;;;;;;;5045333;28;20098;-75
2023/07/04 08:02:01;;;;;;;1999.90;999.90;;;;;;;;;;5042821;28;20080;-74
2023/07/04 08:04:27;;;;;;;1999.90;999.90;;;;;;;;;;5041936;28;20049;-73
2023/07/04 08:06:54;;;;;;;1999.90;999.90;;;;;;;;;;5045006;28;20057;-76
2023/07/04 08:09:21;;;;;;;1999.90;999.90;;;;;;;;;;5047075;28;20144;-75
2023/07/04 08:11:48;;;;;;;1999.90;999.90;;;;;;;;;;5044418;28;20137;-74
2023/07/04 08:14:15;;;;;;;1999.90;999.90;;;;;;;;;;5042540;28;20041;-74
2023/07/04 08:16:43;;;;;;;1999.90;999.90;;;;;;;;;;5043928;28;20057;-75
2023/07/04 08:19:11;;;;;;;1999.90;999.90;;;;;;;;;;5042565;28;20051;-75
2023/07/04 08:21:38;;;;;;;1999.90;999.90;;;;;;;;;;5042940;28;20044;-75
2023/07/04 08:24:10;;;;;;;1999.90;999.90;;;;;;;;;;5044579;28;20052;-75
2023/07/04 08:26:37;;;;;;;1999.90;999.90;;;;;;;;;;5040795;28;20136;-76
2023/07/04 08:29:04;;;;;;;1999.90;999.90;;;;;;;;;;5042994;28;20053;-75
2023/07/04 08:31:30;;;;;;;1999.90;999.90;;;;;;;;;;5041622;28;20072;-75
2023/07/04 08:33:56;;;;;;;1999.90;999.90;;;;;;;;;;5044712;28;20053;-75
2023/07/04 08:36:24;;;;;;;1999.90;999.90;;;;;;;;;;5042993;28;20045;-76
2023/07/04 08:38:51;;;;;;;1999.90;999.90;;;;;;;;;;5042200;28;20053;-75
2023/07/04 08:41:27;;;;;;;1999.90;999.90;;;;;;;;;;5042772;28;20531;-74
2023/07/04 08:43:57;;;;;;;1999.90;999.90;;;;;;;;;;5044024;28;20572;-75
2023/07/04 08:46:24;;;;;;;1999.90;999.90;;;;;;;;;;5041373;28;20053;-74
2023/07/04 08:48:50;;;;;;;1999.90;999.90;;;;;;;;;;5043047;28;20406;-73
2023/07/04 08:51:26;;;;;;;1999.90;999.90;;;;;;;;;;5042946;28;20050;-76
2023/07/04 08:53:55;;;;;;;1999.90;999.90;;;;;;;;;;5042774;28;20501;-76
2023/07/04 08:56:31;;;;;;;1999.90;999.90;;;;;;;;;;5042043;28;20049;-75
2023/07/04 08:59:08;;;;;;;1999.90;999.90;;;;;;;;;;5044291;28;20142;-75
2023/07/04 09:01:42;;;;;;;1999.90;999.90;;;;;;;;;;5044540;28;20147;-75
2023/07/04 09:04:12;;;;;;;1999.90;999.90;;;;;;;;;;5042997;28;20052;-75
2023/07/04 09:06:41;;;;;;;1999.90;999.90;;;;;;;;;;5044366;28;20054;-75
2023/07/04 09:09:15;;;;;;;1999.90;999.90;;;;;;;;;;5041461;28;20053;-74
2023/07/04 09:11:42;;;;;;;1999.90;999.90;;;;;;;;;;5040200;28;20556;-75
2023/07/04 09:14:20;;;;;;;1999.90;999.90;;;;;;;;;;5041070;28;20055;-75
2023/07/04 09:16:48;;;;;;;1999.90;999.90;;;;;;;;;;5039605;28;20060;-75
2023/07/04 09:19:18;;;;;;;1999.90;999.90;;;;;;;;;;5041911;28;20037;-75
2023/07/04 09:21:44;;;;;;;1999.90;999.90;;;;;;;;;;5045094;28;20068;-75
2023/07/04 09:24:12;;;;;;;1999.90;999.90;;;;;;;;;;5042568;28;20064;-75
2023/07/04 09:26:41;;;;;;;1999.90;999.90;;;;;;;;;;5042280;28;20488;-75
2023/07/04 09:29:08;;;;;;;1999.90;999.90;;;;;;;;;;5043035;28;20045;-75
2023/07/04 09:31:37;;;;;;;1999.90;999.90;;;;;;;;;;5042160;28;20532;-76
2023/07/04 09:34:08;;;;;;;1999.90;999.90;;;;;;;;;;5040105;28;20060;-75
2023/07/04 09:36:38;;;;;;;1999.90;999.90;;;;;;;;;;5038292;28;20042;-74
2023/07/04 09:39:05;;;;;;;1999.90;999.90;;;;;;;;;;5043422;28;20524;-75
2023/07/04 09:41:34;;;;;;;1999.90;999.90;;;;;;;;;;5043358;28;20485;-74
2023/07/04 09:44:12;;;;;;;1999.90;999.90;;;;;;;;;;5041776;28;20044;-75
2023/07/04 09:46:39;;;;;;;1999.90;999.90;;;;;;;;;;5041543;28;20052;-74
2023/07/04 09:49:20;;;;;;;1999.90;999.90;;;;;;;;;;5039879;28;20060;-75
2023/07/04 09:51:58;;;;;;;1999.90;999.90;;;;;;;;;;5043024;28;20071;-73
2023/07/04 09:54:24;;;;;;;1999.90;999.90;;;;;;;;;;5044882;28;20056;-73
2023/07/04 09:56:52;;;;;;;1999.90;999.90;;;;;;;;;;5040974;28;20751;-73
2023/07/04 09:59:20;;;;;;;1999.90;999.90;;;;;;;;;;5042260;28;20413;-72
2023/07/04 10:01:48;;;;;;;1999.90;999.90;;;;;;;;;;5041445;28;20055;-72
2023/07/04 10:04:24;;;;;;;1999.90;999.90;;;;;;;;;;5042258;28;20422;-74
2023/07/04 10:06:52;;;;;;;1999.90;999.90;;;;;;;;;;5041835;28;20733;-74
2023/07/04 10:09:20;;;;;;;1999.90;999.90;;;;;;;;;;5044409;28;20053;-72
2023/07/04 10:11:48;;;;;;;1999.90;999.90;;;;;;;;;;5038553;28;20815;-72
2023/07/04 10:14:17;;;;;;;1999.90;999.90;;;;;;;;;;5041637;28;20055;-73
2023/07/04 10:16:50;;;;;;;1999.90;999.90;;;;;;;;;;5041547;28;20041;-73
2023/07/04 10:19:19;;;;;;;1999.90;999.90;;;;;;;;;;5040524;28;20083;-73
2023/07/04 10:21:48;;;;;;;1999.90;999.90;;;;;;;;;;5040090;28;20079;-73
2023/07/04 10:24:18;;;;;;;1999.90;999.90;;;;;;;;;;5042864;28;20045;-71
2023/07/04 10:26:44;;;;;;;1999.90;999.90;;;;;;;;;;5038649;28;20140;-72
2023/07/04 10:29:11;;;;;;;1999.90;999.90;;;;;;;;;;5039783;28;20057;-72
2023/07/04 10:31:40;;;;;;;1999.90;999.90;;;;;;;;;;5039882;28;20051;-72
2023/07/04 10:34:08;;;;;;;1999.90;999.90;;;;;;;;;;5041712;28;20061;-73
2023/07/04 10:36:37;;;;;;;1999.90;999.90;;;;;;;;;;5041782;28;20076;-72
2023/07/04 10:39:06;;;;;;;1999.90;999.90;;;;;;;;;;5042034;28;20060;-70
2023/07/04 10:41:36;;;;;;;1999.90;999.90;;;;;;;;;;5042396;28;20045;-71
2023/07/04 10:44:05;;;;;;;1999.90;999.90;;;;;;;;;;5038475;28;20507;-72
2023/07/04 10:46:37;;;;;;;1999.90;999.90;;;;;;;;;;5043907;28;20048;-75
2023/07/04 10:49:07;;;;;;;1999.90;999.90;;;;;;;;;;5044236;28;20068;-73
2023/07/04 10:51:36;;;;;;;1999.90;999.90;;;;;;;;;;5045242;28;20061;-74
2023/07/04 10:54:03;;;;;;;1999.90;999.90;;;;;;;;;;5043183;28;20049;-74
2023/07/04 10:56:31;;;;;;;1999.90;999.90;;;;;;;;;;5045453;28;20080;-71
2023/07/04 10:59:03;;;;;;;1999.90;999.90;;;;;;;;;;5043014;28;20852;-71
2023/07/04 11:01:34;;;;;;;1999.90;999.90;;;;;;;;;;5045762;28;20053;-70
2023/07/04 11:04:07;;;;;;;1999.90;999.90;;;;;;;;;;5044889;28;20049;-72
2023/07/04 11:06:38;;;;;;;1999.90;999.90;;;;;;;;;;5046932;28;20098;-71
2023/07/04 11:09:06;;;;;;;1999.90;999.90;;;;;;;;;;5047104;28;20143;-72
2023/07/04 11:11:33;;;;;;;1999.90;999.90;;;;;;;;;;5044336;28;20045;-71
2023/07/04 11:14:03;;;;;;;1999.90;999.90;;;;;;;;;;5041145;28;20061;-72
2023/07/04 11:16:31;;;;;;;1999.90;999.90;;;;;;;;;;5043438;28;20052;-71
2023/07/04 11:19:04;;;;;;;1999.90;999.90;;;;;;;;;;5044169;28;20049;-72
2023/07/04 11:21:32;;;;;;;1999.90;999.90;;;;;;;;;;5047531;28;20041;-73
2023/07/04 11:24:15;;;;;;;1999.90;999.90;;;;;;;;;;5042751;28;20049;-71
2023/07/04 11:26:51;;;;;;;1999.90;999.90;;;;;;;;;;5042426;28;20048;-72
2023/07/04 11:29:20;;;;;;;1999.90;999.90;;;;;;;;;;5042009;28;20052;-72
2023/07/04 11:32:10;;;;;;;1999.90;999.90;;;;;;;;;;5042872;28;20102;-72
2023/07/04 11:34:44;;;;;;;1999.90;999.90;;;;;;;;;;5045360;28;20044;-70
2023/07/04 11:37:15;;;;;;;1999.90;999.90;;;;;;;;;;5043334;28;20044;-71
2023/07/04 11:39:42;;;;;;;1999.90;999.90;;;;;;;;;;5045897;28;20041;-72
2023/07/04 11:42:11;;;;;;;1999.90;999.90;;;;;;;;;;5046107;28;20080;-72
2023/07/04 11:44:48;;;;;;;1999.90;999.90;;;;;;;;;;5043269;28;20036;-72
2023/07/04 11:47:18;;;;;;;1999.90;999.90;;;;;;;;;;5043967;28;20060;-73
2023/07/04 11:49:55;;;;;;;1999.90;999.90;;;;;;;;;;5040592;28;20103;-71
2023/07/04 11:52:25;;;;;;;1999.90;999.90;;;;;;;;;;5043122;28;20501;-72
2023/07/04 11:54:56;;;;;;;1999.90;999.90;;;;;;;;;;5040343;28;20568;-72
2023/07/04 11:57:23;;;;;;;1999.90;999.90;;;;;;;;;;5044135;28;20044;-72
2023/07/04 11:59:49;;;;;;;1999.90;999.90;;;;;;;;;;5043752;28;20071;-72
2023/07/04 12:02:27;;;;;;;1999.90;999.90;;;;;;;;;;5045102;28;20044;-71
2023/07/04 12:04:54;;;;;;;1999.90;999.90;;;;;;;;;;5044351;28;20671;-72
2023/07/04 12:07:27;;;;;;;1999.90;999.90;;;;;;;;;;5041775;28;20508;-72
2023/07/04 12:09:57;;;;;;;1999.90;999.90;;;;;;;;;;5043177;28;20049;-72
2023/07/04 12:12:27;;;;;;;1999.90;999.90;;;;;;;;;;5044734;28;20052;-72
2023/07/04 12:14:59;;;;;;;1999.90;999.90;;;;;;;;;;5042904;28;20080;-72
2023/07/04 12:17:26;;;;;;;1999.90;999.90;;;;;;;;;;5043329;28;20045;-71
2023/07/04 12:20:00;;;;;;;1999.90;999.90;;;;;;;;;;5042664;28;20215;-72
2023/07/04 12:22:28;;;;;;;1999.90;999.90;;;;;;;;;;5046368;28;20053;-72
2023/07/04 12:24:54;;;;;;;1999.90;999.90;;;;;;;;;;5043934;28;20079;-72
2023/07/04 12:27:27;;;;;;;1999.90;999.90;;;;;;;;;;5040763;28;20485;-72
2023/07/04 12:29:54;;;;;;;1999.90;999.90;;;;;;;;;;5041185;28;20045;-71
2023/07/04 12:32:21;;;;;;;1999.90;999.90;;;;;;;;;;5043106;28;20059;-72
2023/07/04 12:34:48;;;;;;;1999.90;999.90;;;;;;;;;;5044198;28;20044;-71
2023/07/04 12:37:19;;;;;;;1999.90;999.90;;;;;;;;;;5043762;28;20060;-72
2023/07/04 12:39:48;;;;;;;1999.90;999.90;;;;;;;;;;5040770;28;20140;-72
2023/07/04 12:42:22;;;;;;;1999.90;999.90;;;;;;;;;;5041798;28;20060;-72
2023/07/04 12:44:48;;;;;;;1999.90;999.90;;;;;;;;;;5042375;28;20049;-72
2023/07/04 12:47:19;;;;;;;1999.90;999.90;;;;;;;;;;5041562;28;20060;-73
2023/07/04 12:49:46;;;;;;;1999.90;999.90;;;;;;;;;;5043400;28;20049;-72
2023/07/04 12:52:13;;;;;;;1999.90;999.90;;;;;;;;;;5041324;28;20049;-72
2023/07/04 12:54:40;;;;;;;1999.90;999.90;;;;;;;;;;5044175;28;20048;-73
2023/07/04 12:57:13;;;;;;;1999.90;999.90;;;;;;;;;;5042435;28;20409;-72
2023/07/04 12:59:40;;;;;;;1999.90;999.90;;;;;;;;;;5041251;28;20049;-72
2023/07/04 13:02:13;;;;;;;1999.90;999.90;;;;;;;;;;5043218;28;20052;-72
2023/07/04 13:04:40;;;;;;;1999.90;999.90;;;;;;;;;;5041949;28;20079;-71
2023/07/04 13:07:06;;;;;;;1999.90;999.90;;;;;;;;;;5044755;28;20095;-72
2023/07/04 13:09:33;;;;;;;1999.90;999.90;;;;;;;;;;5045794;28;20059;-73
2023/07/04 13:11:59;;;;;;;1999.90;999.90;;;;;;;;;;5045389;28;20043;-72
2023/07/04 13:14:29;;;;;;;1999.90;999.90;;;;;;;;;;5044334;28;20056;-72
2023/07/04 13:17:09;;;;;;;1999.90;999.90;;;;;;;;;;5043321;28;20063;-72
2023/07/04 13:19:36;;;;;;;1999.90;999.90;;;;;;;;;;5044371;28;20102;-72
2023/07/04 13:22:14;;;;;;;1999.90;999.90;;;;;;;;;;5043191;28;20054;-73
2023/07/04 13:24:40;;;;;;;1999.90;999.90;;;;;;;;;;5043360;28;20497;-73
2023/07/04 13:27:14;;;;;;;1999.90;999.90;;;;;;;;;;5045226;28;20477;-71
2023/07/04 13:29:50;;;;;;;1999.90;999.90;;;;;;;;;;5042915;28;20041;-71
2023/07/04 13:32:25;;;;;;;1999.90;999.90;;;;;;;;;;5041920;28;20499;-73
2023/07/04 13:34:52;;;;;;;1999.90;999.90;;;;;;;;;;5043753;28;20051;-73
2023/07/04 13:37:18;;;;;;;1999.90;999.90;;;;;;;;;;5042384;28;20071;-73
2023/07/04 13:39:45;;;;;;;1999.90;999.90;;;;;;;;;;5042080;28;20049;-72
2023/07/04 13:42:12;;;;;;;1999.90;999.90;;;;;;;;;;5042802;28;20420;-72
2023/07/04 13:44:39;;;;;;;1999.90;999.90;;;;;;;;;;5042057;28;20052;-72
2023/07/04 13:47:08;;;;;;;1999.90;999.90;;;;;;;;;;5043032;28;20060;-72